createdAt,value
2019-02-21T00:00:24.410Z,27.90
2019-02-21T00:02:51.926Z,31.50
2019-02-21T00:05:21.194Z,32.23
2019-02-21T00:07:50.351Z,29.97
2019-02-21T00:10:19.247Z,30.40
2019-02-21T00:12:48.248Z,30.20
2019-02-21T00:15:17.829Z,28.57
2019-02-21T00:17:46.865Z,27.60
2019-02-21T00:20:16.711Z,29.97
2019-02-21T00:22:46.005Z,35.00
2019-02-21T00:25:15.585Z,34.53
2019-02-21T00:27:45.374Z,53.97
2019-02-21T00:30:14.474Z,37.73
2019-02-21T00:32:43.650Z,32.90
2019-02-21T00:35:12.790Z,31.27
2019-02-21T00:37:41.872Z,31.60
2019-02-21T00:40:11.085Z,33.03
2019-02-21T00:42:40.686Z,28.90
2019-02-21T00:45:10.049Z,28.03
2019-02-21T00:47:39.789Z,31.77
2019-02-21T00:50:09.130Z,27.20
2019-02-21T00:52:38.348Z,29.97
2019-02-21T00:55:07.924Z,27.83
2019-02-21T00:57:37.410Z,27.93
2019-02-21T01:00:12.303Z,26.93
2019-02-21T01:02:42.328Z,30.37
2019-02-21T01:05:11.432Z,24.93
2019-02-21T01:07:41.209Z,26.87
2019-02-21T01:10:10.339Z,33.13
2019-02-21T01:12:39.462Z,27.27
2019-02-21T01:15:10.666Z,26.73
2019-02-21T01:17:40.589Z,29.30
2019-02-21T01:20:09.987Z,28.57
2019-02-21T01:22:38.942Z,27.97
2019-02-21T01:25:08.506Z,28.00
2019-02-21T01:27:37.727Z,31.80
2019-02-21T01:30:08.987Z,29.07
2019-02-21T01:32:38.454Z,31.77
2019-02-21T01:35:08.223Z,28.70
2019-02-21T01:37:37.444Z,28.60
2019-02-21T01:40:08.782Z,29.40
2019-02-21T01:42:37.803Z,27.23
2019-02-21T01:45:08.564Z,30.83
2019-02-21T01:47:37.965Z,32.60
2019-02-21T01:50:08.683Z,30.87
2019-02-21T01:52:37.743Z,28.87
2019-02-21T01:55:15.748Z,32.97
2019-02-21T01:57:44.723Z,33.80
2019-02-21T02:00:13.830Z,33.60
2019-02-21T02:02:43.363Z,33.87
2019-02-21T02:05:12.722Z,36.23
2019-02-21T02:07:42.004Z,34.87
2019-02-21T02:10:11.223Z,34.27
2019-02-21T02:12:40.890Z,35.30
2019-02-21T02:15:10.763Z,35.63
2019-02-21T02:17:39.905Z,36.27
2019-02-21T02:20:09.827Z,37.53
2019-02-21T02:22:39.202Z,34.67
2019-02-21T02:25:08.252Z,38.07
2019-02-21T02:27:37.363Z,32.17
2019-02-21T02:30:08.203Z,32.97
2019-02-21T02:32:37.304Z,39.10
2019-02-21T02:35:07.543Z,34.67
2019-02-21T02:37:36.904Z,35.53
2019-02-21T02:40:07.103Z,35.30
2019-02-21T02:42:36.423Z,37.43
2019-02-21T02:45:07.863Z,38.67
2019-02-21T02:47:37.682Z,37.93
2019-02-21T02:50:08.397Z,35.23
2019-02-21T02:52:37.744Z,32.57
2019-02-21T02:55:06.963Z,31.93
2019-02-21T02:57:36.382Z,36.83
2019-02-21T03:00:08.632Z,32.37
2019-02-21T03:02:38.172Z,29.43
2019-02-21T03:05:07.607Z,29.53
2019-02-21T03:07:36.708Z,31.57
2019-02-21T03:10:09.048Z,32.83
2019-02-21T03:12:38.089Z,31.93
2019-02-21T03:15:08.284Z,34.07
2019-02-21T03:17:37.423Z,32.90
2019-02-21T03:20:09.465Z,31.83
2019-02-21T03:22:38.822Z,32.70
2019-02-21T03:25:08.483Z,31.00
2019-02-21T03:27:37.663Z,33.43
2019-02-21T03:30:12.115Z,31.30
2019-02-21T03:32:40.085Z,30.07
2019-02-21T03:35:09.244Z,34.63
2019-02-21T03:37:38.332Z,31.27
2019-02-21T03:40:09.631Z,35.50
2019-02-21T03:42:39.332Z,30.23
2019-02-21T03:45:13.906Z,31.23
2019-02-21T03:47:43.050Z,35.00
2019-02-21T03:50:12.944Z,31.53
2019-02-21T03:52:42.204Z,31.40
2019-02-21T03:55:11.423Z,32.83
2019-02-21T03:57:40.828Z,33.23
2019-02-21T04:00:11.606Z,32.13
2019-02-21T04:02:41.024Z,35.87
2019-02-21T04:05:10.485Z,34.37
2019-02-21T04:07:39.683Z,30.07
2019-02-21T04:10:10.323Z,30.10
2019-02-21T04:12:39.744Z,33.83
2019-02-21T04:15:11.888Z,31.63
2019-02-21T04:17:40.883Z,34.63
2019-02-21T04:20:10.683Z,32.53
2019-02-21T04:22:40.102Z,33.43
2019-02-21T04:25:09.503Z,30.87
2019-02-21T04:27:39.043Z,30.57
2019-02-21T04:30:09.369Z,31.33
2019-02-21T04:32:39.111Z,28.90
2019-02-21T04:35:08.194Z,30.30
2019-02-21T04:37:37.304Z,28.63
2019-02-21T04:40:07.583Z,30.20
2019-02-21T04:42:37.203Z,31.07
2019-02-21T04:45:07.567Z,31.17
2019-02-21T04:47:37.023Z,34.50
2019-02-21T04:50:06.800Z,33.03
2019-02-21T04:52:36.225Z,34.30
2019-02-21T04:55:05.903Z,31.87
2019-02-21T04:57:35.082Z,36.03
2019-02-21T05:00:08.210Z,34.40
2019-02-21T05:02:37.588Z,32.93
2019-02-21T05:05:07.267Z,34.90
2019-02-21T05:07:36.408Z,34.30
2019-02-21T05:10:06.972Z,33.83
2019-02-21T05:12:36.227Z,34.67
2019-02-21T05:15:05.949Z,32.93
2019-02-21T05:17:35.009Z,29.47
2019-02-21T05:20:05.448Z,32.83
2019-02-21T05:22:34.687Z,33.70
2019-02-21T05:25:04.088Z,32.27
2019-02-21T05:27:34.368Z,35.63
2019-02-21T05:30:04.929Z,36.90
2019-02-21T05:32:45.107Z,35.97
2019-02-21T05:35:15.789Z,35.47
2019-02-21T05:38:03.047Z,35.23
2019-02-21T05:40:33.628Z,31.20
2019-02-21T05:43:13.342Z,39.20
2019-02-21T05:45:47.078Z,32.50
2019-02-21T05:48:24.764Z,34.67
2019-02-21T05:51:11.750Z,34.50
2019-02-21T05:53:59.003Z,32.90
2019-02-21T05:56:29.712Z,36.00
2019-02-21T05:59:09.522Z,32.80
2019-02-21T06:01:45.672Z,31.03
2019-02-21T06:04:25.345Z,32.83
2019-02-21T06:06:56.103Z,33.30
2019-02-21T06:09:57.424Z,37.13
2019-02-21T06:12:43.004Z,38.97
2019-02-21T06:15:22.744Z,39.93
2019-02-21T06:18:12.322Z,38.30
2019-02-21T06:20:43.243Z,34.80
2019-02-21T06:23:13.886Z,35.40
2019-02-21T06:25:51.440Z,37.50
2019-02-21T06:28:17.209Z,33.33
2019-02-21T06:30:47.743Z,36.40
2019-02-21T06:33:16.746Z,36.00
2019-02-21T06:35:45.777Z,37.07
2019-02-21T06:38:15.103Z,34.77
2019-02-21T06:41:15.823Z,31.73
2019-02-21T06:43:44.743Z,34.27
2019-02-21T06:46:14.186Z,37.27
2019-02-21T06:48:43.283Z,39.10
2019-02-21T06:51:12.848Z,38.60
2019-02-21T06:53:42.287Z,38.47
2019-02-21T06:56:11.563Z,37.23
2019-02-21T06:58:42.190Z,33.83
2019-02-21T07:01:12.028Z,35.40
2019-02-21T07:03:42.647Z,41.00
2019-02-21T07:06:11.646Z,35.73
2019-02-21T07:08:40.738Z,34.87
2019-02-21T07:11:09.786Z,34.67
2019-02-21T07:13:38.767Z,34.93
2019-02-21T07:16:07.748Z,36.80
2019-02-21T07:18:37.534Z,36.53
2019-02-21T07:21:07.187Z,36.60
2019-02-21T07:23:43.553Z,38.23
2019-02-21T07:26:07.446Z,35.13
2019-02-21T07:28:36.547Z,37.03
2019-02-21T07:31:05.574Z,32.57
2019-02-21T07:33:35.006Z,32.77
2019-02-21T07:36:04.630Z,32.80
2019-02-21T07:38:33.687Z,35.60
2019-02-21T07:41:08.885Z,36.63
2019-02-21T07:43:38.527Z,32.20
2019-02-21T07:46:07.727Z,35.47
2019-02-21T07:48:36.767Z,35.97
2019-02-21T07:51:08.589Z,31.63
2019-02-21T07:53:37.566Z,30.17
2019-02-21T07:56:07.447Z,28.40
2019-02-21T07:58:36.566Z,28.87
2019-02-21T08:01:05.638Z,28.77
2019-02-21T08:03:43.919Z,31.20
2019-02-21T08:06:05.634Z,30.50
2019-02-21T08:08:34.732Z,27.77
2019-02-21T08:11:04.103Z,31.33
2019-02-21T08:13:33.092Z,34.87
2019-02-21T08:16:02.012Z,31.33
2019-02-21T08:18:31.141Z,30.33
2019-02-21T08:21:00.243Z,34.80
2019-02-21T08:23:32.299Z,33.40
2019-02-21T08:26:05.210Z,33.60
2019-02-21T08:28:34.962Z,32.00
2019-02-21T08:31:04.411Z,32.47
2019-02-21T08:33:35.143Z,36.40
2019-02-21T08:36:04.247Z,35.97
2019-02-21T08:38:33.303Z,37.60
2019-02-21T08:41:03.103Z,36.10
2019-02-21T08:43:32.571Z,33.67
2019-02-21T08:46:04.876Z,36.27
2019-02-21T08:48:34.642Z,33.83
2019-02-21T08:51:06.103Z,36.33
2019-02-21T08:53:34.904Z,39.67
2019-02-21T08:56:04.223Z,36.50
2019-02-21T08:58:50.643Z,35.83
2019-02-21T09:01:20.025Z,37.17
2019-02-21T09:03:49.707Z,36.47
2019-02-21T09:06:18.967Z,36.90
2019-02-21T09:08:50.382Z,35.97
2019-02-21T09:11:19.905Z,36.47
2019-02-21T09:13:50.162Z,38.67
2019-02-21T09:16:19.542Z,36.00
2019-02-21T09:18:49.023Z,39.33
2019-02-21T09:21:18.224Z,36.67
2019-02-21T09:24:08.083Z,38.37
2019-02-21T09:26:37.245Z,43.10
2019-02-21T09:29:06.382Z,39.53
2019-02-21T09:31:36.063Z,40.80
2019-02-21T09:34:05.124Z,37.10
2019-02-21T09:36:34.382Z,40.80
2019-02-21T09:39:04.885Z,44.87
2019-02-21T09:41:34.157Z,40.83
2019-02-21T09:44:04.243Z,41.17
2019-02-21T09:46:33.823Z,35.57
2019-02-21T09:49:03.158Z,39.07
2019-02-21T09:51:32.663Z,37.90
2019-02-21T09:54:01.790Z,37.87
2019-02-21T09:56:31.130Z,39.47
2019-02-21T09:59:00.143Z,39.63
2019-02-21T10:01:29.384Z,39.27
2019-02-21T10:03:58.695Z,37.27
2019-02-21T10:06:27.867Z,38.20
2019-02-21T10:08:57.746Z,36.37
2019-02-21T10:11:26.825Z,41.00
2019-02-21T10:13:55.925Z,37.60
2019-02-21T10:16:26.685Z,39.67
2019-02-21T10:18:56.070Z,38.43
2019-02-21T10:21:25.127Z,36.50
2019-02-21T10:24:13.525Z,37.67
2019-02-21T10:26:42.566Z,35.73
2019-02-21T10:29:11.611Z,34.80
2019-02-21T10:31:41.006Z,34.33
2019-02-21T10:34:10.484Z,39.30
2019-02-21T10:36:40.063Z,36.77
2019-02-21T10:39:09.202Z,38.13
2019-02-21T10:41:38.583Z,37.60
2019-02-21T10:44:07.665Z,34.93
2019-02-21T10:46:36.883Z,40.27
2019-02-21T10:49:06.062Z,36.50
2019-02-21T10:51:35.604Z,36.43
2019-02-21T10:54:04.642Z,38.27
2019-02-21T10:56:33.983Z,41.33
2019-02-21T10:59:03.443Z,38.00
2019-02-21T11:01:32.530Z,39.63
2019-02-21T11:04:01.990Z,37.13
2019-02-21T11:06:31.110Z,38.20
2019-02-21T11:09:00.569Z,40.23
2019-02-21T11:11:29.649Z,35.73
2019-02-21T11:14:01.369Z,36.27
2019-02-21T11:16:30.869Z,35.20
2019-02-21T11:18:59.931Z,33.80
2019-02-21T11:21:29.309Z,32.57
2019-02-21T11:24:02.309Z,34.23
2019-02-21T11:26:31.491Z,36.57
2019-02-21T11:29:00.549Z,37.57
2019-02-21T11:31:30.010Z,33.17
2019-02-21T11:34:03.489Z,35.97
2019-02-21T11:36:32.732Z,38.77
2019-02-21T11:39:02.149Z,37.37
2019-02-21T11:41:31.549Z,35.77
2019-02-21T11:44:01.030Z,36.10
2019-02-21T11:46:30.255Z,36.60
2019-02-21T11:48:59.549Z,35.20
2019-02-21T11:51:28.668Z,34.77
2019-02-21T11:53:58.289Z,31.60
2019-02-21T11:56:27.332Z,31.30
2019-02-21T11:59:02.177Z,31.87
2019-02-21T12:01:31.770Z,29.17
2019-02-21T12:04:01.030Z,30.87
2019-02-21T12:06:30.363Z,26.77
2019-02-21T12:08:59.666Z,29.90
2019-02-21T12:11:28.684Z,29.13
2019-02-21T12:13:57.395Z,31.87
2019-02-21T12:16:26.943Z,30.73
2019-02-21T12:18:56.707Z,26.47
2019-02-21T12:21:25.708Z,29.10
2019-02-21T12:26:28.249Z,28.13
2019-02-21T12:28:57.329Z,26.77
2019-02-21T12:31:26.789Z,30.30
2019-02-21T12:33:57.948Z,29.90
2019-02-21T12:36:27.209Z,24.37
2019-02-21T12:38:56.769Z,34.07
2019-02-21T12:41:26.089Z,29.53
2019-02-21T12:44:00.748Z,27.43
2019-02-21T12:46:30.108Z,29.33
2019-02-21T12:48:59.251Z,29.57
2019-02-21T12:51:28.410Z,26.90
2019-02-21T12:53:56.670Z,27.27
2019-02-21T12:56:26.010Z,25.73
2019-02-21T12:58:55.709Z,24.40
2019-02-21T13:01:25.919Z,21.93
2019-02-21T13:04:23.532Z,23.60
2019-02-21T13:06:52.910Z,22.17
2019-02-21T13:09:22.370Z,16.20
2019-02-21T13:11:51.390Z,18.87
2019-02-21T13:14:20.925Z,23.07
2019-02-21T13:16:49.863Z,20.63
2019-02-21T13:19:19.123Z,25.00
2019-02-21T13:21:48.206Z,22.50
2019-02-21T13:24:17.684Z,22.63
2019-02-21T13:26:47.187Z,20.67
2019-02-21T13:29:16.886Z,23.57
2019-02-21T13:31:46.246Z,20.03
2019-02-21T13:34:15.504Z,19.10
2019-02-21T13:36:44.864Z,17.73
2019-02-21T13:39:16.648Z,21.07
2019-02-21T13:41:45.689Z,21.43
2019-02-21T13:44:15.069Z,20.60
2019-02-21T13:46:44.469Z,23.47
2019-02-21T13:49:13.682Z,22.13
2019-02-21T13:51:44.409Z,17.90
2019-02-21T13:54:13.428Z,19.93
2019-02-21T13:56:42.729Z,18.30
2019-02-21T13:59:12.589Z,23.10
2019-02-21T14:01:41.830Z,17.73
2019-02-21T14:04:11.191Z,20.10
2019-02-21T14:06:42.499Z,21.20
2019-02-21T14:09:12.030Z,20.53
2019-02-21T14:11:41.084Z,20.90
2019-02-21T14:14:10.103Z,23.17
2019-02-21T14:16:46.742Z,21.77
2019-02-21T14:19:10.704Z,24.17
2019-02-21T14:21:39.963Z,22.80
2019-02-21T14:24:09.251Z,21.57
2019-02-21T14:26:38.385Z,23.13
2019-02-21T14:29:07.707Z,23.60
2019-02-21T14:31:38.647Z,22.07
2019-02-21T14:34:07.832Z,22.63
2019-02-21T14:36:37.365Z,21.23
2019-02-21T14:39:07.304Z,19.57
2019-02-21T14:41:36.984Z,20.57
2019-02-21T14:44:06.084Z,18.80
2019-02-21T14:46:35.224Z,17.97
2019-02-21T14:49:04.404Z,19.63
2019-02-21T14:51:35.125Z,20.60
2019-02-21T14:54:04.464Z,18.20
2019-02-21T14:56:33.683Z,15.90
2019-02-21T14:59:02.843Z,18.17
2019-02-21T15:01:31.932Z,18.17
2019-02-21T15:04:01.052Z,17.63
2019-02-21T15:06:30.133Z,15.60
2019-02-21T15:08:59.311Z,19.53
2019-02-21T15:11:28.711Z,17.83
2019-02-21T15:13:59.492Z,17.77
2019-02-21T15:16:28.652Z,22.10
2019-02-21T15:18:59.372Z,20.47
2019-02-21T15:21:28.672Z,19.30
2019-02-21T15:26:33.893Z,24.23
2019-02-21T15:29:03.056Z,17.00
2019-02-21T15:31:32.192Z,18.57
2019-02-21T15:34:02.876Z,16.57
2019-02-21T15:36:38.205Z,17.87
2019-02-21T15:39:02.952Z,22.00
2019-02-21T15:41:31.997Z,18.47
2019-02-21T15:44:02.541Z,19.00
2019-02-21T15:46:32.274Z,18.53
2019-02-21T15:49:01.173Z,18.73
2019-02-21T15:51:30.652Z,17.97
2019-02-21T15:53:59.352Z,17.53
2019-02-21T15:56:28.625Z,18.77
2019-02-21T15:58:58.024Z,18.90
2019-02-21T16:01:27.791Z,26.33
2019-02-21T16:03:56.892Z,18.70
2019-02-21T16:06:26.331Z,17.40
2019-02-21T16:08:55.642Z,17.60
2019-02-21T16:11:24.731Z,15.53
2019-02-21T16:14:03.080Z,18.20
2019-02-21T16:16:28.157Z,20.90
2019-02-21T16:18:58.808Z,18.77
2019-02-21T16:21:28.345Z,19.90
2019-02-21T16:24:01.323Z,19.17
2019-02-21T16:26:30.445Z,22.53
2019-02-21T16:29:05.685Z,20.27
2019-02-21T16:31:34.804Z,18.70
2019-02-21T16:34:04.244Z,22.30
2019-02-21T16:36:33.466Z,18.20
2019-02-21T16:39:04.434Z,17.93
2019-02-21T16:41:36.398Z,21.70
2019-02-21T16:44:06.910Z,21.37
2019-02-21T16:46:35.006Z,19.93
2019-02-21T16:49:04.084Z,25.77
2019-02-21T16:51:33.245Z,23.90
2019-02-21T16:54:02.383Z,21.97
2019-02-21T16:56:31.465Z,22.63
2019-02-21T16:59:00.565Z,24.73
2019-02-21T17:01:30.104Z,22.63
2019-02-21T17:03:59.735Z,18.70
2019-02-21T17:06:28.881Z,18.77
2019-02-21T17:08:57.971Z,20.00
2019-02-21T17:11:26.990Z,22.57
2019-02-21T17:13:56.113Z,23.40
2019-02-21T17:16:25.666Z,19.63
2019-02-21T17:18:56.062Z,21.20
2019-02-21T17:21:25.276Z,23.73
2019-02-21T17:23:57.335Z,24.87
2019-02-21T17:26:26.644Z,23.07
2019-02-21T17:28:56.442Z,21.37
2019-02-21T17:31:25.847Z,22.37
2019-02-21T17:33:57.823Z,24.23
2019-02-21T17:36:27.328Z,22.40
2019-02-21T17:38:56.606Z,23.93
2019-02-21T17:41:25.525Z,24.83
2019-02-21T17:43:55.944Z,28.37
2019-02-21T17:46:25.024Z,36.03
2019-02-21T17:48:54.166Z,34.40
2019-02-21T17:51:23.215Z,31.80
2019-02-21T17:56:27.283Z,30.10
2019-02-21T17:58:56.726Z,28.67
2019-02-21T18:01:26.131Z,26.67
2019-02-21T18:04:14.792Z,26.03
2019-02-21T18:06:44.231Z,25.53
2019-02-21T18:09:16.611Z,26.93
2019-02-21T18:11:45.968Z,25.73
2019-02-21T18:14:15.163Z,28.03
2019-02-21T18:16:44.266Z,24.67
2019-02-21T18:19:13.365Z,29.63
2019-02-21T18:21:42.864Z,28.37
2019-02-21T18:24:12.543Z,28.97
2019-02-21T18:26:41.583Z,25.23
2019-02-21T18:29:11.424Z,25.33
2019-02-21T18:31:40.551Z,23.40
2019-02-21T18:34:10.643Z,23.47
2019-02-21T18:36:39.651Z,20.90
2019-02-21T18:39:08.924Z,27.07
2019-02-21T18:41:37.983Z,23.80
2019-02-21T18:44:07.103Z,23.67
2019-02-21T18:46:36.251Z,23.47
2019-02-21T18:49:05.263Z,27.40
2019-02-21T18:51:34.483Z,21.07
2019-02-21T18:54:03.686Z,25.20
2019-02-21T18:56:33.003Z,24.27
2019-02-21T18:59:02.484Z,22.03
2019-02-21T19:01:31.943Z,15.33
2019-02-21T19:04:01.984Z,18.33
2019-02-21T19:06:31.284Z,17.60
2019-02-21T19:09:00.524Z,14.13
2019-02-21T19:11:29.929Z,14.67
2019-02-21T19:16:38.423Z,15.20
2019-02-21T19:19:07.603Z,12.70
2019-02-21T19:21:38.327Z,12.13
2019-02-21T19:24:07.564Z,11.30
2019-02-21T19:26:38.164Z,9.63
2019-02-21T19:29:07.565Z,11.17
2019-02-21T19:31:37.464Z,11.33
2019-02-21T19:34:06.784Z,13.33
2019-02-21T19:36:38.764Z,12.13
2019-02-21T19:39:08.884Z,13.13
2019-02-21T19:41:38.304Z,14.47
2019-02-21T19:44:09.147Z,11.23
2019-02-21T19:46:39.085Z,12.60
2019-02-21T19:49:08.583Z,7.63
2019-02-21T19:51:37.529Z,8.83
2019-02-21T19:54:06.471Z,7.10
2019-02-21T19:56:35.425Z,7.43
2019-02-21T19:59:04.561Z,7.90
2019-02-21T20:01:33.465Z,5.93
2019-02-21T20:04:01.512Z,6.20
2019-02-21T20:06:32.487Z,7.47
2019-02-21T20:09:01.311Z,7.03
2019-02-21T20:11:30.304Z,6.30
2019-02-21T20:14:01.172Z,6.70
2019-02-21T20:16:33.106Z,6.93
2019-02-21T20:19:02.145Z,7.17
2019-02-21T20:21:31.064Z,8.00
2019-02-21T20:24:02.168Z,9.47
2019-02-21T20:26:31.208Z,7.50
2019-02-21T20:29:00.165Z,10.77
2019-02-21T20:31:29.087Z,19.43
2019-02-21T20:36:30.865Z,16.23
2019-02-21T20:38:59.884Z,18.90
2019-02-21T20:41:28.809Z,19.90
2019-02-21T20:43:57.752Z,18.80
2019-02-21T20:46:26.847Z,19.10
2019-02-21T20:48:55.845Z,21.87
2019-02-21T20:51:24.805Z,21.30
2019-02-21T20:53:53.765Z,17.90
2019-02-21T20:56:22.707Z,17.23
2019-02-21T20:58:53.748Z,19.00
2019-02-21T21:01:22.807Z,12.87
2019-02-21T21:03:51.885Z,13.23
2019-02-21T21:06:23.569Z,12.10
2019-02-21T21:08:53.285Z,10.20
2019-02-21T21:11:22.245Z,10.13
2019-02-21T21:13:51.225Z,10.17
2019-02-21T21:16:20.184Z,10.17
2019-02-21T21:18:49.184Z,8.70
2019-02-21T21:21:18.091Z,11.60
2019-02-21T21:23:47.007Z,11.43
2019-02-21T21:26:17.688Z,12.27
2019-02-21T21:28:46.605Z,11.83
2019-02-21T21:31:18.304Z,11.43
2019-02-21T21:33:47.628Z,12.23
2019-02-21T21:36:17.023Z,15.07
2019-02-21T21:38:53.748Z,15.43
2019-02-21T21:41:17.050Z,14.07
2019-02-21T21:43:47.030Z,16.67
2019-02-21T21:46:16.578Z,16.53
2019-02-21T21:48:45.639Z,18.07
2019-02-21T21:51:14.796Z,15.80
2019-02-21T21:53:44.059Z,15.40
2019-02-21T21:56:13.196Z,18.43
2019-02-21T21:58:42.125Z,17.70
2019-02-21T22:01:11.049Z,19.70
2019-02-21T22:03:40.179Z,21.13
2019-02-21T22:06:09.488Z,17.27
2019-02-21T22:08:39.347Z,19.70
2019-02-21T22:11:08.325Z,18.30
2019-02-21T22:13:37.307Z,15.27
2019-02-21T22:16:06.222Z,16.90
2019-02-21T22:18:35.144Z,18.77
2019-02-21T22:21:04.105Z,15.13
2019-02-21T22:23:33.045Z,16.33
2019-02-21T22:26:02.125Z,14.80
2019-02-21T22:28:31.187Z,16.37
2019-02-21T22:31:00.125Z,15.13
2019-02-21T22:33:29.089Z,17.53
2019-02-21T22:35:58.008Z,16.90
2019-02-21T22:38:33.009Z,14.17
2019-02-21T22:41:02.103Z,16.13
2019-02-21T22:43:31.184Z,14.23
2019-02-21T22:46:00.424Z,12.87
2019-02-21T22:48:29.524Z,12.17
2019-02-21T22:50:58.644Z,11.90
2019-02-21T22:53:28.062Z,12.80
2019-02-21T22:55:57.523Z,12.27
2019-02-21T22:58:26.824Z,10.80
2019-02-21T23:01:18.170Z,9.53
2019-02-21T23:03:50.177Z,12.27
2019-02-21T23:06:39.987Z,11.77
2019-02-21T23:09:26.649Z,12.43
2019-02-21T23:11:46.343Z,12.13
2019-02-21T23:14:15.764Z,11.77
2019-02-21T23:16:45.204Z,12.27
2019-02-21T23:19:14.644Z,9.40
2019-02-21T23:21:43.704Z,10.97
2019-02-21T23:24:13.464Z,10.77
2019-02-21T23:26:43.104Z,9.40
2019-02-21T23:29:12.406Z,10.33
2019-02-21T23:31:42.224Z,11.10
2019-02-21T23:34:12.884Z,12.23
2019-02-21T23:36:41.864Z,11.93
2019-02-21T23:39:11.203Z,10.03
2019-02-21T23:41:40.324Z,10.97
2019-02-21T23:44:09.985Z,11.43
2019-02-21T23:46:39.764Z,10.27
2019-02-21T23:49:08.865Z,9.70
2019-02-21T23:51:38.004Z,10.37
2019-02-21T23:54:07.144Z,9.53
2019-02-21T23:56:36.225Z,10.57
2019-02-21T23:59:05.683Z,9.57
